Time;durP1;ratioP1;P1;durP2;ratioP2;P2;SDS_P1;SDS_P2;PMS_P1;PMS_P2;Temp;Humidity;BMP_temperature;BMP_pressure;BME280_temperature;BME280_humidity;BME280_pressure;Samples;Min_cycle;Max_cycle;Signal;HPM_P1;HPM_P2
2022/09/03 00:01:23;;;;;;;3.40;2.90;;;14.80;99.90;;;;;;5118363;28;20653;-85
2022/09/03 00:04:00;;;;;;;7.30;3.27;;;14.80;99.90;;;;;;5118417;28;20198;-86
2022/09/03 00:06:38;;;;;;;4.03;2.87;;;14.80;99.90;;;;;;5118265;28;20171;-87
2022/09/03 00:09:25;;;;;;;3.80;3.40;;;14.70;99.90;;;;;;5119966;28;20693;-85
2022/09/03 00:11:54;;;;;;;3.83;3.27;;;14.60;99.90;;;;;;5119814;28;20221;-84
2022/09/03 00:14:38;;;;;;;3.50;3.13;;;14.50;99.90;;;;;;5119745;28;20191;-85
2022/09/03 00:17:15;;;;;;;3.47;3.00;;;14.50;99.90;;;;;;5118251;28;20216;-86
2022/09/03 00:19:55;;;;;;;3.53;3.23;;;14.50;99.90;;;;;;5119365;28;20220;-86
2022/09/03 00:22:35;;;;;;;7.13;3.77;;;14.40;99.90;;;;;;5118082;28;20628;-86
2022/09/03 00:25:09;;;;;;;4.07;3.67;;;14.30;99.90;;;;;;5119700;28;20518;-85
2022/09/03 00:27:38;;;;;;;4.10;3.70;;;14.30;99.90;;;;;;5118081;28;20173;-85
2022/09/03 00:30:08;;;;;;;4.33;3.93;;;14.20;99.90;;;;;;5117965;28;20227;-85
2022/09/03 00:32:58;;;;;;;7.83;3.83;;;14.20;99.90;;;;;;5119742;28;20243;-85
2022/09/03 00:35:39;;;;;;;4.13;3.73;;;14.10;99.90;;;;;;5117961;28;20167;-86
2022/09/03 00:38:07;;;;;;;4.70;4.17;;;14.10;99.90;;;;;;5118414;28;20156;-86
2022/09/03 00:40:59;;;;;;;7.13;4.00;;;14.10;99.90;;;;;;5118785;28;20204;-86
2022/09/03 00:43:55;;;;;;;5.13;4.63;;;14.00;99.90;;;;;;5117795;28;20164;-85
2022/09/03 00:46:40;;;;;;;6.53;4.10;;;14.00;99.90;;;;;;5117492;28;20574;-86
2022/09/03 00:49:15;;;;;;;5.40;4.50;;;14.00;99.90;;;;;;5117495;28;20168;-85
2022/09/03 00:52:22;;;;;;;4.93;4.50;;;14.00;99.90;;;;;;5117228;28;20590;-85
2022/09/03 00:55:12;;;;;;;6.30;4.60;;;14.00;99.90;;;;;;5055861;28;20233;-86
2022/09/03 00:57:57;;;;;;;6.63;4.53;;;13.90;99.90;;;;;;5112843;28;20180;-85
2022/09/03 01:00:23;;;;;;;7.07;4.27;;;13.80;99.90;;;;;;5117876;28;20194;-86
2022/09/03 01:03:06;;;;;;;5.27;4.67;;;13.80;99.90;;;;;;5116232;28;20222;-85
2022/09/03 01:05:45;;;;;;;4.37;3.97;;;13.80;99.90;;;;;;5117854;28;20148;-86
2022/09/03 01:08:31;;;;;;;5.13;4.23;;;13.80;99.90;;;;;;5116801;28;20163;-86
2022/09/03 01:11:00;;;;;;;5.83;4.10;;;13.80;99.90;;;;;;5117559;28;20287;-86
2022/09/03 01:13:34;;;;;;;5.33;4.13;;;13.80;99.90;;;;;;5118560;28;20191;-84
2022/09/03 01:16:05;;;;;;;4.80;4.30;;;13.80;99.90;;;;;;5118380;28;20166;-87
2022/09/03 01:18:38;;;;;;;6.30;4.73;;;13.80;99.90;;;;;;5118216;28;20191;-86
2022/09/03 01:21:30;;;;;;;4.30;3.90;;;13.70;99.90;;;;;;5118282;28;20198;-86
2022/09/03 01:24:30;;;;;;;4.80;4.30;;;13.70;99.90;;;;;;5115720;28;20281;-87
2022/09/03 01:27:43;;;;;;;4.60;4.07;;;13.80;99.90;;;;;;5117767;28;20178;-85
2022/09/03 01:30:22;;;;;;;5.10;4.43;;;13.70;99.90;;;;;;5079398;28;20209;-86
2022/09/03 01:32:57;;;;;;;6.43;4.07;;;13.60;99.90;;;;;;5116709;28;20210;-86
2022/09/03 01:35:34;;;;;;;5.97;4.87;;;13.60;99.90;;;;;;5119507;28;20247;-86
2022/09/03 01:38:08;;;;;;;4.43;4.03;;;13.50;99.90;;;;;;5119532;28;20156;-86
2022/09/03 01:40:55;;;;;;;4.80;4.40;;;13.50;99.90;;;;;;5118722;28;20285;-86
2022/09/03 01:43:34;;;;;;;5.00;4.47;;;13.40;99.90;;;;;;5120523;28;20182;-85
2022/09/03 01:46:13;;;;;;;8.77;5.17;;;13.30;99.90;;;;;;5118118;28;20174;-86
2022/09/03 01:48:53;;;;;;;5.37;4.43;;;13.30;99.90;;;;;;5119430;28;20180;-85
2022/09/03 01:51:22;;;;;;;5.40;4.90;;;13.20;99.90;;;;;;5118986;28;20213;-85
2022/09/03 01:54:01;;;;;;;6.60;4.83;;;13.20;99.90;;;;;;5118335;28;20199;-86
2022/09/03 01:57:25;;;;;;;5.63;4.40;;;13.10;99.90;;;;;;5119782;28;20202;-86
2022/09/03 02:00:04;;;;;;;6.10;4.37;;;13.10;99.90;;;;;;5040728;28;20532;-86
2022/09/03 02:02:31;;;;;;;7.73;4.47;;;13.10;99.90;;;;;;5040469;28;20192;-84
2022/09/03 02:05:09;;;;;;;7.37;5.27;;;13.00;99.90;;;;;;5083731;28;20198;-86
2022/09/03 02:07:38;;;;;;;7.20;5.60;;;13.00;99.90;;;;;;5117370;28;20176;-83
2022/09/03 02:10:09;;;;;;;7.70;5.57;;;13.00;99.90;;;;;;5118305;28;20194;-83
2022/09/03 02:12:37;;;;;;;5.73;5.23;;;12.90;99.90;;;;;;5119019;28;20155;-86
2022/09/03 02:15:09;;;;;;;6.17;5.40;;;12.90;99.90;;;;;;5120818;28;20199;-86
2022/09/03 02:17:35;;;;;;;6.70;5.70;;;12.90;99.90;;;;;;5123555;28;20171;-87
2022/09/03 02:20:10;;;;;;;5.63;4.80;;;12.80;99.90;;;;;;5119243;28;20205;-85
2022/09/03 02:22:38;;;;;;;5.73;4.83;;;12.80;99.90;;;;;;5116076;28;20200;-85
2022/09/03 02:25:04;;;;;;;6.53;4.93;;;12.70;99.90;;;;;;5117106;28;20267;-86
2022/09/03 02:27:30;;;;;;;5.87;4.53;;;12.80;99.90;;;;;;5116897;28;20175;-86
2022/09/03 02:29:57;;;;;;;8.93;5.17;;;12.70;99.90;;;;;;5117116;28;20662;-85
2022/09/03 02:32:23;;;;;;;5.87;5.03;;;12.70;99.90;;;;;;5115444;28;20183;-86
2022/09/03 02:34:48;;;;;;;5.60;5.07;;;12.70;99.90;;;;;;5116240;28;20205;-85
2022/09/03 02:37:16;;;;;;;5.70;5.20;;;12.70;99.90;;;;;;5116451;28;20552;-87
2022/09/03 02:39:42;;;;;;;5.80;5.30;;;12.70;99.90;;;;;;5114780;28;20186;-86
2022/09/03 02:42:11;;;;;;;4.93;4.47;;;12.70;99.90;;;;;;5115903;28;20182;-86
2022/09/03 02:44:51;;;;;;;4.73;4.33;;;12.70;99.90;;;;;;5116185;28;20179;-85
2022/09/03 02:47:19;;;;;;;4.80;4.40;;;12.70;99.90;;;;;;5114980;28;20640;-86
2022/09/03 02:49:48;;;;;;;5.10;4.60;;;12.70;99.90;;;;;;5114520;28;20180;-85
2022/09/03 02:52:14;;;;;;;5.70;5.10;;;12.80;99.90;;;;;;5117363;28;20172;-86
2022/09/03 02:54:40;;;;;;;8.07;4.37;;;12.80;99.90;;;;;;5115341;28;20220;-86
2022/09/03 02:57:10;;;;;;;8.30;4.17;;;12.80;99.90;;;;;;5116453;28;20168;-86
2022/09/03 02:59:38;;;;;;;4.87;4.47;;;12.80;99.90;;;;;;5116927;28;20164;-85
2022/09/03 03:02:04;;;;;;;5.10;4.30;;;12.90;99.90;;;;;;5115494;28;20316;-85
2022/09/03 03:04:31;;;;;;;6.50;4.80;;;12.90;99.90;;;;;;5115082;28;20278;-85
2022/09/03 03:06:56;;;;;;;5.87;4.70;;;12.90;99.90;;;;;;5115230;28;20190;-85
2022/09/03 03:09:22;;;;;;;7.83;4.63;;;13.00;99.90;;;;;;5115137;28;20278;-85
2022/09/03 03:11:50;;;;;;;6.27;4.40;;;13.00;99.90;;;;;;5117111;28;20194;-86
2022/09/03 03:14:17;;;;;;;5.73;4.27;;;13.00;99.90;;;;;;5115253;28;20209;-85
2022/09/03 03:16:43;;;;;;;5.63;5.00;;;13.00;99.90;;;;;;5115947;28;20218;-85
2022/09/03 03:19:09;;;;;;;5.53;4.63;;;13.00;99.90;;;;;;5115930;28;20270;-86
2022/09/03 03:21:34;;;;;;;6.50;4.60;;;13.10;99.90;;;;;;5119514;28;20223;-85
2022/09/03 03:24:01;;;;;;;5.53;5.00;;;13.10;99.90;;;;;;5120311;28;20701;-86
2022/09/03 03:26:27;;;;;;;11.10;4.73;;;13.20;99.90;;;;;;5120114;28;20183;-85
2022/09/03 03:28:58;;;;;;;5.10;4.70;;;13.20;99.90;;;;;;5121055;28;20179;-86
2022/09/03 03:31:24;;;;;;;5.57;5.03;;;13.30;99.90;;;;;;5119627;28;20234;-86
2022/09/03 03:34:07;;;;;;;9.87;4.73;;;13.20;99.90;;;;;;5119952;28;20219;-86
2022/09/03 03:36:34;;;;;;;6.43;4.70;;;13.30;99.90;;;;;;5120010;28;20507;-85
2022/09/03 03:39:00;;;;;;;7.13;4.40;;;13.30;99.90;;;;;;5120584;28;20176;-86
2022/09/03 03:41:31;;;;;;;6.87;5.20;;;13.40;99.90;;;;;;5119759;28;20199;-86
2022/09/03 03:44:05;;;;;;;5.73;5.23;;;13.40;99.90;;;;;;5121180;28;20254;-88
2022/09/03 03:46:34;;;;;;;5.20;4.70;;;13.40;99.90;;;;;;5119382;28;20187;-87
2022/09/03 03:49:00;;;;;;;5.80;5.07;;;13.40;99.90;;;;;;5119512;28;20224;-85
2022/09/03 03:51:26;;;;;;;6.23;5.20;;;13.40;99.90;;;;;;5120994;28;20699;-85
2022/09/03 03:53:56;;;;;;;5.33;4.83;;;13.40;99.90;;;;;;5120586;28;20195;-86
2022/09/03 03:56:25;;;;;;;8.10;4.77;;;13.50;99.90;;;;;;5118854;28;20175;-86
2022/09/03 03:58:51;;;;;;;5.10;4.70;;;13.50;99.90;;;;;;5119022;28;20511;-87
2022/09/03 04:01:19;;;;;;;5.00;4.50;;;13.50;99.90;;;;;;5118646;28;20227;-85
2022/09/03 04:03:45;;;;;;;4.87;4.47;;;13.50;99.90;;;;;;5118520;28;20195;-86
2022/09/03 04:06:13;;;;;;;5.37;4.47;;;13.60;99.90;;;;;;5118623;28;20178;-85
2022/09/03 04:08:40;;;;;;;4.50;4.07;;;13.60;99.90;;;;;;5118208;28;20186;-86
2022/09/03 04:11:09;;;;;;;5.17;4.67;;;13.60;99.90;;;;;;5119529;28;20742;-86
2022/09/03 04:13:37;;;;;;;6.43;5.17;;;13.60;99.90;;;;;;5117978;28;20314;-86
2022/09/03 04:16:06;;;;;;;5.27;4.27;;;13.60;99.90;;;;;;5118509;28;20211;-86
2022/09/03 04:18:34;;;;;;;4.83;4.33;;;13.60;99.90;;;;;;5119954;28;20171;-86
2022/09/03 04:21:08;;;;;;;4.83;4.20;;;13.60;99.90;;;;;;5119708;28;20211;-87
2022/09/03 04:23:37;;;;;;;5.00;4.50;;;13.60;99.90;;;;;;5118666;28;20202;-86
2022/09/03 06:21:24;;;;;;;10.93;8.73;;;14.10;99.90;;;;;;5116489;27;20834;-86
2022/09/03 06:23:51;;;;;;;11.40;9.87;;;14.20;99.90;;;;;;5114355;28;20203;-86
2022/09/03 06:26:18;;;;;;;11.20;9.97;;;14.20;99.90;;;;;;5114166;28;20224;-84
2022/09/03 06:28:47;;;;;;;9.40;8.50;;;14.30;99.90;;;;;;5114711;28;20202;-84
2022/09/03 06:42:01;;;;;;;7.70;6.83;;;14.50;99.90;;;;;;5126863;27;20274;-85
2022/09/03 06:44:26;;;;;;;6.87;6.13;;;14.60;99.90;;;;;;5094022;28;20263;-86
2022/09/03 06:46:52;;;;;;;9.73;7.37;;;14.60;99.90;;;;;;5091893;28;20176;-85
2022/09/03 06:49:18;;;;;;;6.90;6.20;;;14.70;99.90;;;;;;5091215;28;20187;-85
2022/09/03 06:51:44;;;;;;;7.70;6.53;;;14.80;99.90;;;;;;5092032;28;20296;-84
2022/09/03 06:54:11;;;;;;;7.60;6.80;;;15.00;99.90;;;;;;5091963;28;20217;-84
2022/09/03 06:56:39;;;;;;;7.73;6.07;;;14.90;99.90;;;;;;5093806;28;20203;-84
2022/09/03 06:59:10;;;;;;;8.03;6.27;;;15.00;99.90;;;;;;5092281;28;20184;-85
2022/09/03 07:01:39;;;;;;;7.03;6.33;;;15.10;99.90;;;;;;5093436;28;20667;-84
2022/09/03 07:04:06;;;;;;;5.63;5.13;;;15.20;99.90;;;;;;5092933;28;20180;-85
2022/09/03 07:06:38;;;;;;;6.87;5.40;;;15.10;99.90;;;;;;5091791;28;20676;-85
2022/09/03 07:09:07;;;;;;;6.27;5.60;;;15.10;99.90;;;;;;5092479;28;20171;-82
2022/09/03 07:11:34;;;;;;;8.03;5.13;;;15.20;99.90;;;;;;5094033;28;20196;-83
2022/09/03 07:14:01;;;;;;;6.07;5.27;;;15.20;99.90;;;;;;5092750;28;20191;-84
2022/09/03 07:23:40;;;;;;;5.87;5.17;;;15.20;99.90;;;;;;5135150;27;20267;-84
2022/09/03 07:26:13;;;;;;;5.63;4.60;;;15.20;99.90;;;;;;5133357;28;20202;-83
2022/09/03 07:28:40;;;;;;;5.40;4.90;;;15.20;99.90;;;;;;5113903;28;20167;-83
2022/09/03 07:31:12;;;;;;;5.87;5.33;;;15.30;99.90;;;;;;5133775;28;20218;-83
2022/09/03 07:33:38;;;;;;;7.23;5.07;;;15.30;99.90;;;;;;5133507;28;20266;-85
2022/09/03 07:36:09;;;;;;;5.47;4.97;;;15.20;99.90;;;;;;5133629;28;20531;-84
2022/09/03 07:38:35;;;;;;;5.67;5.00;;;15.30;99.90;;;;;;5135004;27;20169;-85
2022/09/03 07:41:04;;;;;;;5.30;4.43;;;15.30;99.90;;;;;;5140728;27;20230;-85
2022/09/03 07:43:35;;;;;;;4.70;4.30;;;15.30;99.90;;;;;;5141497;27;20206;-83
2022/09/03 07:46:01;;;;;;;5.43;4.63;;;15.40;99.90;;;;;;5138121;28;20183;-84
2022/09/03 07:48:27;;;;;;;4.70;4.20;;;15.50;99.90;;;;;;5139781;27;20644;-82
2022/09/03 07:51:00;;;;;;;5.97;4.60;;;15.50;99.90;;;;;;5140998;27;20222;-86
2022/09/03 07:53:28;;;;;;;5.80;4.37;;;15.60;99.90;;;;;;5139409;28;20621;-86
2022/09/03 07:56:01;;;;;;;5.10;4.27;;;15.70;99.90;;;;;;5138507;28;20209;-84
2022/09/03 07:58:29;;;;;;;5.27;4.20;;;15.80;99.90;;;;;;5136958;27;20175;-84
2022/09/03 08:00:55;;;;;;;5.00;4.20;;;16.10;99.90;;;;;;5133854;27;20198;-87
2022/09/03 08:03:21;;;;;;;4.97;4.17;;;16.30;99.90;;;;;;5132488;28;20579;-86
2022/09/03 08:05:47;;;;;;;5.33;3.80;;;16.70;99.90;;;;;;5132774;28;20640;-85
2022/09/03 08:08:13;;;;;;;4.00;3.30;;;17.00;99.90;;;;;;5133917;27;20570;-85
2022/09/03 08:10:40;;;;;;;3.90;3.60;;;17.40;99.90;;;;;;5132618;28;20282;-84
2022/09/03 08:13:06;;;;;;;8.13;4.07;;;17.90;99.90;;;;;;5132613;28;20316;-85
2022/09/03 08:15:33;;;;;;;3.37;3.07;;;18.30;99.90;;;;;;5134263;27;20216;-85
2022/09/03 08:17:59;;;;;;;3.87;3.20;;;18.50;99.90;;;;;;5133156;27;20241;-86
2022/09/03 08:20:25;;;;;;;3.33;3.00;;;18.60;99.90;;;;;;5131778;28;20204;-84
2022/09/03 08:22:51;;;;;;;2.93;2.63;;;18.70;99.90;;;;;;5131935;28;20221;-84
2022/09/03 08:25:16;;;;;;;3.10;2.43;;;19.00;99.90;;;;;;5132040;28;20184;-86
2022/09/03 08:27:42;;;;;;;3.10;2.80;;;19.50;99.90;;;;;;5132370;28;20548;-84
2022/09/03 08:30:12;;;;;;;2.33;2.13;;;19.80;99.90;;;;;;5132303;28;20218;-85
2022/09/03 08:32:38;;;;;;;3.97;2.20;;;20.40;99.90;;;;;;5132635;28;20246;-85
2022/09/03 08:35:11;;;;;;;2.23;2.00;;;20.50;99.90;;;;;;5118939;28;20577;-85
2022/09/03 08:37:36;;;;;;;3.43;1.83;;;20.50;99.90;;;;;;5120552;27;20164;-85
2022/09/03 08:40:04;;;;;;;4.50;2.10;;;21.00;99.90;;;;;;5119193;28;20199;-86
2022/09/03 08:42:45;;;;;;;4.00;1.77;;;21.70;99.90;;;;;;5120382;28;20195;-86
2022/09/03 08:45:15;;;;;;;2.77;2.17;;;21.90;99.90;;;;;;5119105;28;20565;-85
2022/09/03 08:48:20;;;;;;;2.07;1.97;;;21.70;99.90;;;;;;5119461;28;20172;-85
2022/09/03 08:50:50;;;;;;;2.50;2.30;;;21.70;99.90;;;;;;5077754;28;20200;-86
2022/09/03 08:53:24;;;;;;;2.83;2.30;;;21.30;99.90;;;;;;5114308;28;20271;-84
2022/09/03 08:56:03;;;;;;;1.90;1.80;;;20.80;99.90;;;;;;5120966;28;20167;-84
2022/09/03 08:58:32;;;;;;;1.77;1.67;;;20.60;99.90;;;;;;5120796;28;20170;-86
2022/09/03 09:01:23;;;;;;;1.97;1.87;;;20.50;99.90;;;;;;5120055;28;20252;-82
2022/09/03 09:04:09;;;;;;;2.40;1.80;;;20.40;99.90;;;;;;5120005;28;20156;-83
2022/09/03 09:06:49;;;;;;;2.97;2.23;;;20.30;99.90;;;;;;5121799;28;20219;-83
2022/09/03 09:09:21;;;;;;;2.43;2.23;;;20.10;99.90;;;;;;5120092;28;20171;-85
2022/09/03 09:12:06;;;;;;;2.30;2.10;;;19.90;99.90;;;;;;5124498;28;20187;-86
2022/09/03 09:14:56;;;;;;;2.30;2.10;;;19.70;99.90;;;;;;5126507;28;20189;-86
2022/09/03 09:17:55;;;;;;;2.20;2.10;;;19.60;99.90;;;;;;5124955;28;20195;-85
2022/09/03 09:21:02;;;;;;;2.73;2.10;;;19.30;99.90;;;;;;5117238;28;20192;-83
2022/09/03 09:23:33;;;;;;;2.30;2.10;;;19.20;99.90;;;;;;5119483;28;20213;-86
2022/09/03 09:26:05;;;;;;;2.60;2.40;;;19.00;99.90;;;;;;5118906;28;20669;-85
2022/09/03 09:28:38;;;;;;;2.50;2.17;;;18.90;99.90;;;;;;5117673;28;20159;-82
2022/09/03 09:31:06;;;;;;;2.93;2.50;;;18.80;99.90;;;;;;5118955;28;20187;-84
2022/09/03 09:33:33;;;;;;;2.90;2.10;;;18.80;99.90;;;;;;5118601;28;20190;-84
2022/09/03 09:36:01;;;;;;;2.93;2.20;;;18.70;99.90;;;;;;5119637;28;20643;-82
2022/09/03 09:38:35;;;;;;;2.97;2.43;;;18.80;99.90;;;;;;5118812;28;20250;-82
2022/09/03 09:41:18;;;;;;;2.03;1.90;;;19.10;99.90;;;;;;5119965;28;20204;-82
2022/09/03 09:43:48;;;;;;;2.20;2.00;;;19.40;99.90;;;;;;5118324;28;20187;-84
2022/09/03 09:46:20;;;;;;;2.13;2.00;;;19.60;99.90;;;;;;5116621;28;20182;-84
2022/09/03 09:48:55;;;;;;;1.90;1.80;;;20.00;99.90;;;;;;5117030;28;20526;-82
2022/09/03 09:51:29;;;;;;;3.00;2.00;;;20.80;99.90;;;;;;5118157;28;20194;-87
2022/09/03 09:54:17;;;;;;;1.77;1.60;;;21.20;99.90;;;;;;5117165;28;20173;-87
2022/09/03 09:56:44;;;;;;;2.03;1.83;;;21.70;99.90;;;;;;5117414;28;20167;-84
2022/09/03 09:59:11;;;;;;;2.90;1.93;;;21.70;99.90;;;;;;5118436;28;20175;-84
2022/09/03 10:01:39;;;;;;;2.37;1.87;;;21.70;99.90;;;;;;5117249;28;20212;-84
2022/09/03 10:04:11;;;;;;;2.63;2.00;;;21.70;99.90;;;;;;5118092;28;20180;-86
2022/09/03 10:06:52;;;;;;;3.80;1.90;;;;;;;;;;5117232;28;20204;-84
2022/09/03 10:09:24;;;;;;;3.27;2.30;;;21.20;99.90;;;;;;5118334;28;20198;-84
2022/09/03 10:11:57;;;;;;;2.30;2.10;;;21.00;99.90;;;;;;5116975;28;20691;-84
2022/09/03 10:14:31;;;;;;;2.00;1.80;;;21.00;99.90;;;;;;5118669;28;20256;-83
2022/09/03 10:17:17;;;;;;;2.00;1.63;;;21.20;99.90;;;;;;5117273;28;20226;-84
2022/09/03 10:22:54;;;;;;;1.80;1.70;;;21.70;99.90;;;;;;5117946;28;20281;-84
2022/09/03 10:25:21;;;;;;;2.20;2.00;;;22.80;99.90;;;;;;5117624;28;20180;-83
2022/09/03 10:27:47;;;;;;;2.13;1.80;;;23.80;99.90;;;;;;5117718;28;20220;-85
2022/09/03 10:30:15;;;;;;;2.37;1.70;;;24.00;99.90;;;;;;5117641;28;20592;-85
2022/09/03 10:33:12;;;;;;;2.20;2.00;;;23.40;99.90;;;;;;5116768;28;20185;-86
2022/09/03 10:35:50;;;;;;;3.00;1.90;;;23.10;99.90;;;;;;5116120;28;20168;-85
2022/09/03 10:38:33;;;;;;;2.10;2.00;;;22.60;99.90;;;;;;5116131;28;20167;-86
2022/09/03 10:41:04;;;;;;;2.63;1.53;;;22.70;99.90;;;;;;5116493;28;20694;-87
2022/09/03 10:44:05;;;;;;;2.00;1.90;;;23.20;99.90;;;;;;5117594;28;20537;-86
2022/09/03 10:47:11;;;;;;;2.07;1.60;;;23.80;99.90;;;;;;5116605;28;20165;-86
2022/09/03 10:49:48;;;;;;;4.97;1.87;;;24.80;99.90;;;;;;5118354;28;20211;-85
2022/09/03 10:52:29;;;;;;;2.00;1.50;;;24.80;99.90;;;;;;5117342;28;20251;-84
2022/09/03 10:55:04;;;;;;;1.80;1.70;;;25.10;99.90;;;;;;5116587;28;20182;-84
2022/09/03 10:57:58;;;;;;;1.40;1.30;;;25.60;99.90;;;;;;5117542;28;20168;-85
2022/09/03 11:00:24;;;;;;;2.23;1.50;;;26.00;99.90;;;;;;5121257;28;20211;-87
2022/09/03 11:03:28;;;;;;;2.03;1.63;;;26.30;99.90;;;;;;5124871;28;20191;-85
2022/09/03 11:06:03;;;;;;;1.87;1.30;;;26.90;99.90;;;;;;5117132;28;20548;-86
2022/09/03 11:08:41;;;;;;;1.80;1.50;;;27.20;99.90;;;;;;5118883;28;20698;-85
2022/09/03 11:11:25;;;;;;;1.50;1.40;;;27.30;99.90;;;;;;5117467;28;20271;-83
2022/09/03 11:13:54;;;;;;;1.73;1.63;;;27.60;99.90;;;;;;5119192;28;20178;-85
2022/09/03 11:16:29;;;;;;;1.47;1.37;;;27.60;99.90;;;;;;5121585;28;20576;-84
2022/09/03 11:19:03;;;;;;;1.67;1.33;;;27.50;99.90;;;;;;5120632;28;20165;-85
2022/09/03 11:21:31;;;;;;;1.77;1.60;;;27.50;99.90;;;;;;5119167;28;20249;-86
2022/09/03 11:24:21;;;;;;;1.57;1.47;;;27.60;99.90;;;;;;5119363;28;20576;-85
2022/09/03 11:26:53;;;;;;;1.10;1.00;;;27.70;99.90;;;;;;5116974;28;20636;-85
2022/09/03 11:29:42;;;;;;;1.60;1.50;;;27.50;99.90;;;;;;5117538;28;20258;-85
2022/09/03 11:32:15;;;;;;;1.67;1.57;;;27.50;99.90;;;;;;5117160;28;20262;-86
2022/09/03 11:34:53;;;;;;;1.50;1.40;;;27.90;99.90;;;;;;5119239;28;20238;-84
2022/09/03 11:37:26;;;;;;;1.27;1.17;;;27.60;99.90;;;;;;5117361;28;20201;-84
2022/09/03 11:40:18;;;;;;;1.40;1.30;;;27.60;99.90;;;;;;5117720;28;20278;-87
2022/09/03 11:42:44;;;;;;;4.40;1.37;;;27.50;99.90;;;;;;5117158;28;20163;-85
2022/09/03 11:45:25;;;;;;;1.60;1.50;;;27.10;99.90;;;;;;5116986;28;20179;-84
2022/09/03 11:47:53;;;;;;;2.37;1.40;;;26.90;99.90;;;;;;5116700;28;20168;-86
2022/09/03 11:50:24;;;;;;;1.40;1.30;;;27.40;99.90;;;;;;5118727;28;20214;-85
2022/09/03 11:52:53;;;;;;;1.67;1.57;;;27.50;99.90;;;;;;5118138;28;20210;-85
2022/09/03 11:55:45;;;;;;;1.50;1.40;;;27.80;99.90;;;;;;5119379;28;20206;-83
2022/09/03 11:58:19;;;;;;;1.67;1.40;;;28.10;99.90;;;;;;5117896;28;20157;-82
2022/09/03 12:00:45;;;;;;;1.27;1.17;;;28.30;99.90;;;;;;5117997;28;20193;-85
2022/09/03 12:03:16;;;;;;;1.53;1.43;;;28.60;99.90;;;;;;5118167;28;20186;-82
2022/09/03 12:06:23;;;;;;;2.20;1.30;;;28.60;99.90;;;;;;5117842;28;20177;-87
2022/09/03 12:09:07;;;;;;;1.77;1.67;;;28.40;99.90;;;;;;5077957;28;20183;-87
2022/09/03 12:11:53;;;;;;;1.57;1.40;;;27.60;99.90;;;;;;5122507;28;20264;-87
2022/09/03 12:14:36;;;;;;;1.50;1.40;;;26.70;99.90;;;;;;5120946;28;20160;-86
2022/09/03 12:17:12;;;;;;;1.77;1.37;;;26.00;99.90;;;;;;5122553;28;20159;-86
2022/09/03 12:19:54;;;;;;;1.30;1.20;;;25.40;99.90;;;;;;5128805;28;20531;-85
2022/09/03 12:22:23;;;;;;;1.30;1.20;;;25.40;99.90;;;;;;5121977;28;20184;-85
2022/09/03 12:24:49;;;;;;;1.20;1.10;;;25.60;99.90;;;;;;5119975;28;20177;-86
2022/09/03 12:27:23;;;;;;;1.50;1.40;;;25.00;99.90;;;;;;5120688;28;20182;-84
2022/09/03 12:30:00;;;;;;;1.30;1.20;;;24.50;99.90;;;;;;5121772;28;20183;-85
2022/09/03 12:32:37;;;;;;;1.73;1.30;;;24.50;99.90;;;;;;5120076;28;20183;-85
2022/09/03 12:35:23;;;;;;;1.63;1.50;;;24.10;99.90;;;;;;5119626;28;20164;-85
2022/09/03 12:37:51;;;;;;;1.30;1.20;;;23.60;99.90;;;;;;5121115;28;20161;-85
2022/09/03 12:40:29;;;;;;;2.70;1.50;;;23.10;99.90;;;;;;5118745;28;20280;-85
2022/09/03 12:43:13;;;;;;;9.50;2.17;;;23.00;99.90;;;;;;5121534;28;20161;-84
2022/09/03 12:45:53;;;;;;;8.63;3.30;;;22.60;99.90;;;;;;5119352;28;20252;-86
2022/09/03 12:48:19;;;;;;;6.03;2.60;;;21.80;99.90;;;;;;5119845;28;20201;-84
2022/09/03 12:50:48;;;;;;;3.37;1.60;;;20.60;99.90;;;;;;5118380;28;20250;-86
2022/09/03 12:53:34;;;;;;;1.47;1.13;;;18.80;99.90;;;;;;5118680;28;20204;-83
2022/09/03 12:56:02;;;;;;;1.23;1.10;;;18.80;99.90;;;;;;5121387;28;20156;-80
2022/09/03 12:59:02;;;;;;;1.20;1.00;;;17.90;99.90;;;;;;5121171;28;20183;-84
2022/09/03 13:01:33;;;;;;;1.50;1.10;;;17.70;99.90;;;;;;5119423;28;20203;-81
2022/09/03 13:04:08;;;;;;;3.30;1.47;;;17.60;99.90;;;;;;5118147;28;20178;-84
2022/09/03 13:06:55;;;;;;;1.63;1.30;;;17.50;99.90;;;;;;5118632;28;20248;-83
2022/09/03 13:09:28;;;;;;;2.50;1.27;;;17.20;99.90;;;;;;5117801;28;20221;-83
2022/09/03 13:11:55;;;;;;;3.10;1.17;;;17.20;99.90;;;;;;5117822;28;20185;-82
2022/09/03 13:14:22;;;;;;;1.23;1.10;;;17.20;99.90;;;;;;5119066;28;20700;-85
2022/09/03 13:17:11;;;;;;;2.17;1.20;;;17.40;99.90;;;;;;5118049;28;20165;-83
2022/09/03 13:20:05;;;;;;;1.40;1.07;;;18.20;99.90;;;;;;5119695;28;20214;-84
2022/09/03 13:22:39;;;;;;;2.20;1.17;;;19.90;99.90;;;;;;5118054;28;20330;-83
2022/09/03 13:25:29;;;;;;;2.23;1.30;;;20.60;99.90;;;;;;5119381;28;20162;-84
2022/09/03 13:28:15;;;;;;;1.70;1.20;;;20.10;99.90;;;;;;5117624;28;20171;-85
2022/09/03 13:30:53;;;;;;;4.60;1.07;;;19.40;99.90;;;;;;5120032;28;20442;-83
2022/09/03 13:33:37;;;;;;;1.17;1.07;;;19.00;99.90;;;;;;5118783;28;20193;-82
2022/09/03 13:36:08;;;;;;;0.80;0.80;;;18.60;99.90;;;;;;5118716;28;20254;-83
2022/09/03 13:38:52;;;;;;;1.30;1.20;;;18.30;99.90;;;;;;5119667;28;20160;-83
2022/09/03 13:41:45;;;;;;;1.27;1.17;;;18.10;99.90;;;;;;5118882;28;20297;-83
2022/09/03 13:44:11;;;;;;;1.33;1.13;;;17.90;99.90;;;;;;5118044;28;20204;-83
2022/09/03 13:47:07;;;;;;;1.30;1.07;;;17.90;99.90;;;;;;5118899;28;20169;-83
2022/09/03 13:52:43;;;;;;;1.87;1.30;;;17.70;99.90;;;;;;5047372;28;20226;-82
2022/09/03 13:55:30;;;;;;;1.70;1.30;;;17.70;99.90;;;;;;5078667;28;20166;-84
2022/09/03 13:58:08;;;;;;;1.70;1.17;;;17.70;99.90;;;;;;5077649;28;20163;-84
2022/09/03 14:00:43;;;;;;;1.47;1.37;;;17.60;99.90;;;;;;5077358;28;20675;-82
2022/09/03 14:03:25;;;;;;;3.40;1.40;;;17.60;99.90;;;;;;5077215;28;20157;-82
2022/09/03 14:06:25;;;;;;;1.43;1.33;;;17.60;99.90;;;;;;5075900;28;20173;-81
2022/09/03 14:09:25;;;;;;;1.73;1.10;;;17.50;99.90;;;;;;5074627;28;20191;-78
2022/09/03 14:12:24;;;;;;;2.03;1.30;;;17.40;99.90;;;;;;5075026;28;20232;-82
2022/09/03 14:14:59;;;;;;;34.73;20.07;;;17.30;99.90;;;;;;5037922;28;20192;-83
2022/09/03 14:17:27;;;;;;;582.27;362.83;;;17.20;99.90;;;;;;5076599;28;20162;-83
2022/09/03 14:20:23;;;;;;;117.77;79.27;;;17.20;99.90;;;;;;5077035;28;20674;-82
2022/09/03 14:23:10;;;;;;;4.60;3.90;;;17.10;99.90;;;;;;5079272;28;20243;-83
2022/09/03 14:25:39;;;;;;;2.27;1.87;;;17.10;99.90;;;;;;5078594;28;20185;-82
2022/09/03 14:28:19;;;;;;;2.20;1.70;;;17.10;99.90;;;;;;5098699;28;20207;-84
2022/09/03 14:31:12;;;;;;;1.47;1.37;;;17.10;99.90;;;;;;5082062;28;20193;-82
2022/09/03 14:33:57;;;;;;;2.13;1.53;;;17.10;99.90;;;;;;5082500;28;20191;-81
2022/09/03 14:36:45;;;;;;;1.77;1.47;;;17.30;99.90;;;;;;5083919;28;20165;-82
2022/09/03 14:39:53;;;;;;;1.90;1.33;;;17.50;99.90;;;;;;5056131;28;20203;-85
2022/09/03 14:42:27;;;;;;;2.50;1.50;;;17.70;99.90;;;;;;5079547;28;20252;-81
2022/09/03 14:45:08;;;;;;;1.70;1.60;;;18.00;99.90;;;;;;5090009;28;20165;-81
2022/09/03 14:48:05;;;;;;;1.80;1.50;;;18.70;99.90;;;;;;5091251;28;20172;-80
2022/09/03 14:50:42;;;;;;;1.47;1.27;;;19.20;99.90;;;;;;5094549;28;20217;-83
2022/09/03 14:53:13;;;;;;;1.67;1.40;;;19.50;99.90;;;;;;5092277;28;20214;-83
2022/09/03 14:55:42;;;;;;;1.50;1.30;;;20.50;99.90;;;;;;5090118;28;20166;-84
2022/09/03 14:58:37;;;;;;;1.50;1.40;;;21.50;99.90;;;;;;5089407;28;20194;-79
2022/09/03 15:01:24;;;;;;;2.57;1.50;;;22.20;99.90;;;;;;5088732;28;20654;-82
2022/09/03 15:04:16;;;;;;;2.37;1.27;;;22.30;99.90;;;;;;5081831;28;20619;-84
2022/09/03 15:07:05;;;;;;;6.27;5.77;;;22.70;99.90;;;;;;5075242;28;20173;-82
2022/09/03 15:09:39;;;;;;;11.50;8.07;;;22.90;99.90;;;;;;5038001;28;20232;-83
2022/09/03 15:12:09;;;;;;;2.43;2.23;;;23.30;99.90;;;;;;5074695;28;20289;-82
2022/09/03 15:14:46;;;;;;;8.97;8.13;;;23.60;99.90;;;;;;5075521;28;20184;-86
2022/09/03 15:17:42;;;;;;;1.20;1.10;;;23.70;99.90;;;;;;5075397;28;20615;-84
2022/09/03 15:20:41;;;;;;;9.77;8.10;;;23.60;99.90;;;;;;5076180;28;20215;-85
2022/09/03 15:23:19;;;;;;;2.37;2.17;;;23.30;99.90;;;;;;5075905;28;20189;-84
2022/09/03 15:26:03;;;;;;;6.10;4.73;;;22.70;99.90;;;;;;5074694;28;20185;-85
2022/09/03 15:28:47;;;;;;;1.17;1.07;;;22.70;99.90;;;;;;5074922;28;20163;-86
2022/09/03 15:31:22;;;;;;;0.97;0.87;;;22.70;99.90;;;;;;5075042;28;20197;-84
2022/09/03 15:34:01;;;;;;;1.30;1.20;;;22.90;99.90;;;;;;5075995;28;20193;-83
2022/09/03 15:36:37;;;;;;;1.10;1.00;;;23.00;99.90;;;;;;5075436;28;20250;-86
2022/09/03 15:39:11;;;;;;;1.03;0.93;;;22.80;99.90;;;;;;5075309;28;20167;-83
2022/09/03 15:41:40;;;;;;;2.13;1.00;;;22.50;99.90;;;;;;5076523;28;20203;-85
2022/09/03 15:44:18;;;;;;;1.00;0.90;;;22.40;99.90;;;;;;5077920;28;20213;-84
2022/09/03 15:46:49;;;;;;;0.87;0.87;;;22.30;99.90;;;;;;5081666;28;20160;-84
2022/09/03 15:49:27;;;;;;;1.53;1.10;;;21.70;99.90;;;;;;5081383;28;20617;-84